Time;durP1;ratioP1;P1;durP2;ratioP2;P2;SDS_P1;SDS_P2;PMS_P1;PMS_P2;Temp;Humidity;BMP_temperature;BMP_pressure;BME280_temperature;BME280_humidity;BME280_pressure;Samples;Min_cycle;Max_cycle;Signal;HPM_P1;HPM_P2
2021/08/15 00:01:55;;;;;;;10.10;4.07;;;19.10;85.80;;;;;;5032744;28;20108;-75
2021/08/15 00:04:20;;;;;;;9.23;4.10;;;19.20;85.70;;;;;;5033356;28;20041;-75
2021/08/15 00:06:46;;;;;;;9.73;4.15;;;19.20;85.60;;;;;;5031340;28;20096;-75
2021/08/15 00:09:11;;;;;;;7.55;3.40;;;19.20;85.60;;;;;;5031310;28;20021;-75
2021/08/15 00:11:37;;;;;;;12.18;3.90;;;19.20;85.60;;;;;;5030610;28;20033;-75
2021/08/15 00:14:03;;;;;;;6.45;3.13;;;19.20;85.50;;;;;;5034664;28;20064;-73
2021/08/15 00:16:28;;;;;;;6.00;3.42;;;19.20;85.60;;;;;;5034577;28;20029;-74
2021/08/15 00:18:54;;;;;;;7.88;3.25;;;19.20;85.70;;;;;;5033554;28;20036;-74
2021/08/15 00:21:20;;;;;;;8.23;3.45;;;19.10;85.80;;;;;;5034868;28;20022;-74
2021/08/15 00:23:46;;;;;;;8.25;3.45;;;19.10;85.80;;;;;;5033784;28;20026;-74
2021/08/15 00:26:11;;;;;;;7.25;3.63;;;19.10;86.00;;;;;;5034853;28;20032;-74
2021/08/15 00:28:37;;;;;;;7.38;3.45;;;19.10;86.00;;;;;;5033590;28;20386;-75
2021/08/15 00:31:03;;;;;;;6.53;3.30;;;19.10;86.10;;;;;;5034346;28;20033;-75
2021/08/15 00:33:29;;;;;;;8.75;3.92;;;19.00;86.10;;;;;;5032705;28;20048;-74
2021/08/15 00:35:55;;;;;;;10.48;3.80;;;19.00;86.30;;;;;;5035001;28;20037;-74
2021/08/15 00:38:21;;;;;;;6.95;3.30;;;19.00;86.30;;;;;;5034175;28;20022;-75
2021/08/15 00:40:47;;;;;;;10.32;3.58;;;19.00;86.40;;;;;;5033834;28;20104;-75
2021/08/15 00:43:12;;;;;;;6.20;2.92;;;19.00;86.40;;;;;;5034632;28;20358;-75
2021/08/15 00:45:38;;;;;;;7.47;3.95;;;19.00;86.40;;;;;;5033542;28;20037;-75
2021/08/15 00:48:11;;;;;;;9.48;4.00;;;19.10;86.50;;;;;;5034517;28;20025;-75
2021/08/15 00:50:40;;;;;;;4.50;2.80;;;19.10;86.50;;;;;;5033376;28;20497;-75
2021/08/15 00:53:06;;;;;;;7.60;3.30;;;19.10;86.40;;;;;;5034172;28;20087;-75
2021/08/15 00:55:33;;;;;;;7.78;3.70;;;19.10;86.40;;;;;;5033871;28;20034;-74
2021/08/15 00:58:00;;;;;;;8.73;3.42;;;19.10;86.30;;;;;;5034113;28;20105;-74
2021/08/15 01:00:26;;;;;;;7.53;3.88;;;19.10;86.80;;;;;;5034134;28;20511;-74
2021/08/15 01:02:52;;;;;;;5.93;3.25;;;19.20;86.20;;;;;;5033346;28;20029;-75
2021/08/15 01:05:17;;;;;;;7.75;3.40;;;19.20;86.20;;;;;;5033584;28;20033;-74
2021/08/15 01:07:44;;;;;;;7.70;3.75;;;19.20;86.20;;;;;;5033315;28;20376;-74
2021/08/15 01:10:15;;;;;;;6.32;3.17;;;19.20;86.30;;;;;;5033852;28;20029;-74
2021/08/15 01:12:41;;;;;;;9.65;3.67;;;19.20;86.40;;;;;;5032972;28;20458;-75
2021/08/15 01:15:08;;;;;;;6.45;3.40;;;19.30;86.30;;;;;;5033788;28;20061;-75
2021/08/15 01:17:34;;;;;;;6.70;3.67;;;19.30;86.40;;;;;;5033207;28;20025;-75
2021/08/15 01:19:59;;;;;;;7.75;3.75;;;19.30;86.40;;;;;;5033369;28;20024;-75
2021/08/15 01:22:26;;;;;;;8.13;3.40;;;19.30;86.50;;;;;;5033606;28;20109;-75
2021/08/15 01:24:53;;;;;;;7.35;3.45;;;19.20;86.50;;;;;;5031941;28;20076;-75
2021/08/15 01:27:22;;;;;;;6.47;3.42;;;19.20;86.70;;;;;;5033516;28;20033;-74
2021/08/15 01:29:49;;;;;;;7.75;3.55;;;19.20;86.80;;;;;;5032980;28;20083;-74
2021/08/15 01:32:21;;;;;;;8.23;3.33;;;19.20;86.90;;;;;;5033572;28;20017;-74
2021/08/15 01:34:46;;;;;;;7.93;3.88;;;19.20;86.90;;;;;;5031570;28;20045;-74
2021/08/15 01:37:12;;;;;;;8.07;3.47;;;19.20;87.00;;;;;;5033721;28;20445;-74
2021/08/15 01:39:41;;;;;;;8.77;3.28;;;19.20;87.10;;;;;;5032689;28;20104;-74
2021/08/15 01:42:08;;;;;;;9.13;4.43;;;19.10;87.20;;;;;;5033242;28;20029;-74
2021/08/15 01:44:34;;;;;;;8.63;3.72;;;19.10;87.30;;;;;;5032205;28;20124;-74
2021/08/15 01:46:59;;;;;;;5.97;3.38;;;19.10;87.40;;;;;;5033178;28;20101;-74
2021/08/15 01:49:25;;;;;;;7.05;3.53;;;19.10;87.50;;;;;;5033081;28;20084;-74
2021/08/15 01:51:51;;;;;;;7.57;3.38;;;19.00;87.50;;;;;;5032199;28;20052;-74
2021/08/15 01:54:16;;;;;;;6.82;2.97;;;19.00;87.60;;;;;;5033282;28;20525;-74
2021/08/15 01:56:42;;;;;;;7.30;3.45;;;18.90;87.80;;;;;;5032625;28;20065;-74
2021/08/15 01:59:08;;;;;;;8.45;3.95;;;19.00;87.90;;;;;;5032578;28;20048;-74
2021/08/15 02:01:33;;;;;;;7.60;3.50;;;18.90;88.00;;;;;;5032292;28;20100;-74
2021/08/15 02:03:59;;;;;;;7.38;3.40;;;18.90;88.00;;;;;;5032713;28;20022;-74
2021/08/15 02:06:25;;;;;;;6.95;3.95;;;18.90;88.20;;;;;;5032803;28;20025;-74
2021/08/15 02:08:51;;;;;;;8.65;4.32;;;18.90;88.30;;;;;;5032402;28;20410;-74
2021/08/15 02:11:18;;;;;;;7.88;3.55;;;18.90;88.40;;;;;;5032664;28;20071;-74
2021/08/15 02:13:44;;;;;;;5.55;2.97;;;18.90;88.40;;;;;;5032078;28;20080;-74
2021/08/15 02:16:09;;;;;;;8.18;4.20;;;18.90;88.40;;;;;;5032636;28;20033;-74
2021/08/15 02:18:35;;;;;;;9.18;4.03;;;18.90;88.40;;;;;;5032267;28;20030;-74
2021/08/15 02:21:01;;;;;;;8.23;4.25;;;18.90;88.40;;;;;;5032540;28;20021;-74
2021/08/15 02:23:27;;;;;;;8.75;3.80;;;18.90;88.50;;;;;;5032454;28;20108;-74
2021/08/15 02:25:53;;;;;;;7.30;4.20;;;18.90;88.60;;;;;;5031787;28;20709;-74
2021/08/15 02:28:19;;;;;;;7.47;4.13;;;18.90;88.60;;;;;;5032136;28;20045;-74
2021/08/15 02:30:45;;;;;;;8.52;3.47;;;18.90;88.50;;;;;;5031776;28;20508;-74
2021/08/15 02:33:11;;;;;;;8.85;3.97;;;18.90;88.50;;;;;;5033211;28;20029;-74
2021/08/15 02:35:36;;;;;;;7.55;3.78;;;18.90;88.50;;;;;;5031668;28;20021;-74
2021/08/15 02:38:02;;;;;;;9.15;3.70;;;18.90;88.50;;;;;;5032274;28;20060;-74
2021/08/15 02:40:28;;;;;;;6.68;3.40;;;18.90;88.60;;;;;;5032334;28;20029;-74
2021/08/15 02:42:54;;;;;;;7.18;3.33;;;18.90;88.70;;;;;;5031623;28;20033;-74
2021/08/15 02:45:22;;;;;;;7.63;3.65;;;18.80;88.70;;;;;;5031921;28;20040;-74
2021/08/15 02:47:48;;;;;;;7.60;3.35;;;18.80;89.00;;;;;;5031543;28;20056;-73
2021/08/15 02:50:14;;;;;;;9.05;3.85;;;18.80;89.00;;;;;;5031875;28;20022;-74
2021/08/15 02:52:40;;;;;;;9.95;3.75;;;18.80;89.10;;;;;;5030254;28;20021;-74
2021/08/15 02:55:06;;;;;;;10.23;3.65;;;18.70;89.10;;;;;;5031730;28;20029;-74
2021/08/15 02:57:32;;;;;;;6.53;3.30;;;18.70;89.20;;;;;;5031689;28;20013;-75
2021/08/15 02:59:58;;;;;;;7.80;4.28;;;18.70;89.30;;;;;;5031089;28;20326;-74
2021/08/15 03:02:24;;;;;;;9.07;3.92;;;18.70;89.30;;;;;;5031948;28;20327;-74
2021/08/15 03:04:50;;;;;;;7.60;3.85;;;18.70;89.40;;;;;;5031534;28;20040;-74
2021/08/15 03:07:17;;;;;;;6.18;3.00;;;18.70;89.40;;;;;;5031904;28;20037;-74
2021/08/15 03:09:46;;;;;;;6.95;3.10;;;18.70;89.50;;;;;;5031243;28;20048;-74
2021/08/15 03:12:12;;;;;;;6.25;3.10;;;18.70;89.50;;;;;;5031886;28;20029;-74
2021/08/15 03:14:38;;;;;;;10.32;3.80;;;18.60;89.50;;;;;;5031195;28;20033;-74
2021/08/15 03:17:08;;;;;;;7.57;3.47;;;18.60;89.60;;;;;;5031560;28;20021;-74
2021/08/15 03:19:34;;;;;;;8.30;3.95;;;18.60;89.70;;;;;;5031830;28;20022;-74
2021/08/15 03:22:00;;;;;;;7.78;3.90;;;18.50;89.80;;;;;;5031143;28;20032;-74
2021/08/15 03:24:25;;;;;;;8.52;3.30;;;18.50;89.90;;;;;;5030077;28;20025;-74
2021/08/15 03:26:51;;;;;;;8.20;3.70;;;18.50;90.00;;;;;;5031374;28;20030;-74
2021/08/15 03:29:18;;;;;;;8.27;3.70;;;18.40;90.00;;;;;;5031705;28;20052;-74
2021/08/15 03:31:45;;;;;;;7.68;3.53;;;18.40;90.10;;;;;;5030848;28;20022;-74
2021/08/15 03:34:12;;;;;;;6.40;3.17;;;18.40;90.10;;;;;;5031693;28;20167;-75
2021/08/15 03:36:38;;;;;;;8.02;3.80;;;18.30;90.10;;;;;;5031782;28;20060;-74
2021/08/15 03:39:05;;;;;;;7.53;3.40;;;18.30;90.20;;;;;;5031292;28;20021;-75
2021/08/15 03:41:31;;;;;;;6.45;3.42;;;18.30;90.20;;;;;;5031337;28;20033;-74
2021/08/15 03:43:56;;;;;;;6.75;3.25;;;18.30;90.20;;;;;;5030681;28;20025;-75
2021/08/15 03:46:23;;;;;;;7.47;3.42;;;18.30;90.20;;;;;;5031527;28;20114;-75
2021/08/15 03:48:48;;;;;;;7.25;3.13;;;18.30;90.10;;;;;;5034034;28;20026;-75
2021/08/15 03:51:14;;;;;;;8.77;3.63;;;18.40;90.10;;;;;;5035401;28;20022;-75
2021/08/15 03:53:40;;;;;;;8.32;3.42;;;18.30;90.10;;;;;;5034715;28;20112;-74
2021/08/15 03:56:05;;;;;;;6.82;3.10;;;18.30;90.20;;;;;;5034957;28;20033;-75
2021/08/15 03:58:32;;;;;;;9.45;3.65;;;18.30;90.20;;;;;;5035157;28;20017;-74
2021/08/15 04:00:57;;;;;;;7.38;3.25;;;18.30;90.20;;;;;;5034592;28;20025;-75
2021/08/15 04:03:23;;;;;;;6.32;3.33;;;18.30;90.20;;;;;;5035186;28;20028;-75
2021/08/15 04:05:49;;;;;;;7.95;3.42;;;18.30;90.30;;;;;;5034323;28;20067;-74
2021/08/15 04:08:14;;;;;;;6.75;3.28;;;18.30;90.30;;;;;;5034825;28;20035;-75
2021/08/15 04:10:40;;;;;;;7.32;3.63;;;18.30;90.30;;;;;;5034554;28;20362;-74
2021/08/15 04:13:06;;;;;;;7.20;3.65;;;18.20;90.40;;;;;;5034646;28;20527;-75
2021/08/15 04:15:32;;;;;;;6.45;3.25;;;18.20;90.40;;;;;;5033573;28;20018;-74
2021/08/15 04:17:58;;;;;;;7.38;3.50;;;18.30;90.40;;;;;;5034067;28;20514;-75
2021/08/15 04:20:24;;;;;;;7.20;3.45;;;18.30;90.40;;;;;;5033474;28;20064;-74
2021/08/15 04:22:50;;;;;;;8.88;3.80;;;18.30;90.40;;;;;;5033864;28;20365;-75
2021/08/15 04:25:16;;;;;;;9.02;4.22;;;18.30;90.40;;;;;;5034675;28;20033;-75
2021/08/15 04:27:42;;;;;;;7.97;3.42;;;18.30;90.70;;;;;;5034092;28;20022;-75
2021/08/15 04:30:10;;;;;;;7.75;3.75;;;18.30;90.40;;;;;;5034683;28;20026;-74
2021/08/15 04:32:36;;;;;;;7.65;3.50;;;18.30;90.40;;;;;;5034272;28;20115;-74
2021/08/15 04:35:03;;;;;;;8.20;3.22;;;18.30;90.40;;;;;;5033860;28;20223;-74
2021/08/15 04:37:29;;;;;;;8.52;4.05;;;18.30;90.40;;;;;;5034516;28;20061;-74
2021/08/15 04:39:55;;;;;;;8.35;3.47;;;18.30;90.50;;;;;;5033731;28;20032;-74
2021/08/15 04:42:20;;;;;;;7.75;3.67;;;18.30;90.50;;;;;;5034483;28;20022;-74
2021/08/15 04:44:46;;;;;;;9.68;3.92;;;18.30;90.50;;;;;;5032379;28;20041;-74
2021/08/15 04:47:12;;;;;;;9.88;3.50;;;18.30;90.40;;;;;;5034192;28;20018;-74
2021/08/15 04:49:38;;;;;;;8.35;4.05;;;18.30;90.40;;;;;;5034121;28;20462;-74
2021/08/15 04:52:04;;;;;;;8.38;3.85;;;18.30;90.40;;;;;;5034096;28;20026;-74
2021/08/15 04:54:30;;;;;;;7.35;3.67;;;18.40;90.40;;;;;;5033927;28;20423;-74
2021/08/15 04:56:58;;;;;;;10.15;4.53;;;18.40;90.40;;;;;;5034048;28;20034;-74
2021/08/15 04:59:24;;;;;;;8.95;4.32;;;18.40;90.40;;;;;;5034250;28;20095;-74
2021/08/15 05:01:49;;;;;;;7.70;3.67;;;18.40;90.30;;;;;;5033648;28;20061;-74
2021/08/15 05:04:15;;;;;;;9.48;4.32;;;18.40;90.40;;;;;;5033837;28;20489;-74
2021/08/15 05:06:41;;;;;;;8.57;4.53;;;18.50;90.50;;;;;;5033346;28;20057;-74
2021/08/15 05:09:07;;;;;;;8.95;4.57;;;18.50;90.50;;;;;;5050831;28;20454;-74
2021/08/15 05:11:33;;;;;;;10.48;4.60;;;18.50;90.40;;;;;;5042103;28;20039;-74
2021/08/15 05:13:59;;;;;;;9.13;4.45;;;18.50;90.40;;;;;;5052758;28;20469;-75
2021/08/15 05:16:25;;;;;;;11.52;4.93;;;18.50;90.40;;;;;;5040080;28;20033;-75
2021/08/15 05:18:50;;;;;;;11.43;5.00;;;18.50;90.30;;;;;;5033148;28;20049;-75
2021/08/15 05:21:16;;;;;;;11.70;4.75;;;18.50;90.30;;;;;;5033645;28;20092;-74
2021/08/15 05:23:42;;;;;;;10.70;4.93;;;18.50;90.20;;;;;;5033597;28;20036;-74
2021/08/15 05:26:08;;;;;;;9.70;5.43;;;18.50;90.10;;;;;;5052545;28;20032;-74
2021/08/15 05:28:33;;;;;;;7.45;4.00;;;18.50;90.10;;;;;;5058273;28;20045;-75
2021/08/15 05:30:59;;;;;;;8.80;4.55;;;18.50;90.00;;;;;;5046612;28;20029;-75
2021/08/15 05:33:25;;;;;;;11.70;5.85;;;18.50;90.00;;;;;;5063142;28;20021;-74
2021/08/15 05:35:51;;;;;;;16.05;6.18;;;18.50;90.00;;;;;;5071317;28;20067;-75
2021/08/15 05:38:17;;;;;;;11.98;4.90;;;18.50;90.00;;;;;;5053210;28;20162;-74
2021/08/15 05:40:42;;;;;;;12.20;6.07;;;18.50;90.00;;;;;;5053185;28;20029;-74
2021/08/15 05:43:08;;;;;;;9.57;4.20;;;18.50;90.00;;;;;;5052344;28;20100;-75
2021/08/15 05:45:34;;;;;;;10.00;6.05;;;18.50;90.00;;;;;;5051773;28;20036;-75
2021/08/15 05:47:59;;;;;;;14.18;6.28;;;18.50;90.00;;;;;;5053668;28;20057;-74
2021/08/15 05:50:25;;;;;;;12.50;5.65;;;18.50;90.00;;;;;;5073266;28;20017;-75
2021/08/15 05:52:51;;;;;;;10.80;5.82;;;18.50;90.00;;;;;;5072528;28;20349;-74
2021/08/15 05:55:16;;;;;;;10.68;6.13;;;18.50;90.00;;;;;;5071620;28;20054;-74
2021/08/15 05:57:42;;;;;;;11.88;5.97;;;18.50;89.90;;;;;;5073045;28;20499;-74
2021/08/15 06:00:08;;;;;;;11.73;5.43;;;18.50;90.00;;;;;;5072308;28;20672;-74
2021/08/15 06:02:34;;;;;;;11.63;6.18;;;18.50;90.00;;;;;;5072812;28;20051;-74
2021/08/15 06:05:00;;;;;;;9.88;4.95;;;18.50;89.90;;;;;;5059359;28;20404;-74
2021/08/15 06:07:25;;;;;;;11.45;6.28;;;18.50;89.80;;;;;;5052690;28;20032;-75
2021/08/15 06:09:51;;;;;;;14.15;6.97;;;18.50;89.70;;;;;;5051592;28;20025;-74
2021/08/15 06:12:17;;;;;;;12.10;6.65;;;18.50;89.60;;;;;;5052267;28;20055;-74
2021/08/15 06:14:43;;;;;;;14.23;7.15;;;18.60;89.70;;;;;;5052242;28;20029;-75
2021/08/15 06:17:08;;;;;;;13.57;6.68;;;18.60;89.60;;;;;;5051927;28;20602;-75
2021/08/15 06:19:34;;;;;;;11.90;6.03;;;18.60;89.50;;;;;;5057053;28;20028;-75
2021/08/15 06:22:00;;;;;;;15.93;7.30;;;18.60;89.30;;;;;;5037134;28;20026;-75
2021/08/15 06:24:27;;;;;;;12.15;6.32;;;18.70;89.40;;;;;;5072383;28;20119;-75
2021/08/15 06:26:54;;;;;;;15.73;7.60;;;18.70;89.50;;;;;;5036131;28;20083;-75
2021/08/15 06:29:20;;;;;;;10.02;5.05;;;18.70;89.50;;;;;;5044781;28;20057;-75
2021/08/15 06:31:46;;;;;;;13.82;6.72;;;18.70;89.40;;;;;;5052284;28;20393;-75
2021/08/15 06:34:11;;;;;;;14.27;6.75;;;18.80;89.30;;;;;;5050312;28;20100;-75
2021/08/15 06:36:37;;;;;;;10.95;6.97;;;18.80;89.20;;;;;;5052261;28;20024;-75
2021/08/15 06:39:05;;;;;;;13.77;7.18;;;18.80;89.30;;;;;;5051628;28;20025;-75
2021/08/15 06:41:32;;;;;;;12.38;6.80;;;18.70;89.30;;;;;;5052205;28;20080;-75
2021/08/15 06:43:57;;;;;;;13.48;5.75;;;18.80;89.40;;;;;;5032398;28;20032;-76
2021/08/15 06:46:23;;;;;;;12.63;6.43;;;18.80;89.40;;;;;;5032518;28;20104;-75
2021/08/15 06:48:49;;;;;;;12.45;7.68;;;18.80;89.30;;;;;;5032079;28;20390;-76
2021/08/15 06:51:15;;;;;;;13.10;7.05;;;18.80;89.40;;;;;;5031515;28;20442;-76
2021/08/15 06:53:41;;;;;;;15.23;7.65;;;18.80;89.40;;;;;;5031979;28;20048;-75
2021/08/15 06:56:08;;;;;;;12.10;6.85;;;18.90;89.50;;;;;;5031198;28;20021;-75
2021/08/15 06:58:34;;;;;;;15.82;7.13;;;18.80;89.50;;;;;;5032016;28;20022;-75
2021/08/15 07:01:00;;;;;;;12.27;6.80;;;18.90;89.60;;;;;;5031314;28;20125;-75
2021/08/15 07:03:25;;;;;;;11.48;6.97;;;18.90;89.60;;;;;;5046489;28;20485;-75
2021/08/15 07:05:51;;;;;;;13.40;7.20;;;18.90;89.60;;;;;;5051385;28;20393;-75
2021/08/15 07:08:17;;;;;;;12.82;6.38;;;19.00;89.70;;;;;;5050955;28;20033;-75
2021/08/15 07:10:43;;;;;;;11.68;6.45;;;19.00;89.70;;;;;;5051830;28;20025;-75
2021/08/15 07:13:09;;;;;;;9.95;5.38;;;19.00;89.70;;;;;;5050897;28;20025;-74
2021/08/15 07:15:35;;;;;;;13.00;6.45;;;19.10;89.60;;;;;;5049996;28;20041;-74
2021/08/15 07:18:01;;;;;;;9.43;5.18;;;19.20;89.40;;;;;;5051353;28;20028;-74
2021/08/15 07:20:28;;;;;;;13.52;6.38;;;19.20;89.20;;;;;;5050436;28;20024;-74
2021/08/15 07:22:55;;;;;;;11.90;6.30;;;19.30;89.10;;;;;;5039548;28;20444;-74
2021/08/15 07:25:21;;;;;;;12.50;6.32;;;19.30;89.00;;;;;;5052880;28;20435;-74
2021/08/15 07:27:47;;;;;;;11.52;6.18;;;19.30;89.00;;;;;;5057023;28;20493;-74
2021/08/15 07:30:13;;;;;;;14.48;7.45;;;19.40;89.00;;;;;;5055249;28;20023;-75
2021/08/15 07:32:52;;;;;;;12.15;5.40;;;19.40;89.00;;;;;;5055639;28;20025;-75
2021/08/15 07:35:18;;;;;;;11.57;5.95;;;19.40;88.90;;;;;;5054860;28;20025;-76
2021/08/15 07:37:43;;;;;;;10.43;5.20;;;19.40;88.80;;;;;;5055987;28;20025;-75
2021/08/15 07:40:09;;;;;;;13.85;5.80;;;19.50;88.50;;;;;;5037124;28;20030;-75
2021/08/15 07:42:35;;;;;;;10.05;5.45;;;19.60;88.20;;;;;;5050872;28;20032;-75
2021/08/15 07:45:01;;;;;;;8.55;4.30;;;19.70;88.40;;;;;;5041502;28;20038;-75
2021/08/15 07:47:26;;;;;;;11.07;5.47;;;19.80;87.40;;;;;;5044956;28;20426;-75
2021/08/15 07:49:52;;;;;;;8.38;4.70;;;19.90;87.00;;;;;;5035145;28;20029;-76
2021/08/15 07:52:18;;;;;;;12.73;4.97;;;19.90;86.80;;;;;;5051340;28;20029;-75
2021/08/15 07:54:43;;;;;;;7.97;4.63;;;20.10;86.60;;;;;;5055309;28;20021;-75
2021/08/15 07:57:09;;;;;;;10.40;5.03;;;20.10;86.20;;;;;;5054673;28;20036;-75
2021/08/15 07:59:34;;;;;;;9.88;4.60;;;20.30;85.80;;;;;;5055202;28;20025;-75
2021/08/15 08:02:00;;;;;;;9.23;4.55;;;20.30;85.30;;;;;;5054186;28;20028;-76
2021/08/15 08:04:26;;;;;;;4.35;2.40;;;20.40;84.90;;;;;;5038217;28;20038;-75
2021/08/15 08:06:51;;;;;;;7.80;4.97;;;20.50;84.60;;;;;;5035024;28;20032;-75
2021/08/15 08:09:17;;;;;;;6.15;3.58;;;20.60;84.10;;;;;;5034777;28;20057;-75
2021/08/15 08:11:44;;;;;;;8.90;3.50;;;20.60;84.00;;;;;;5042819;28;20087;-75
2021/08/15 08:14:09;;;;;;;8.43;4.32;;;20.60;83.90;;;;;;5054075;28;20023;-77
2021/08/15 08:16:35;;;;;;;9.82;4.30;;;20.60;83.70;;;;;;5050127;28;20092;-75
2021/08/15 08:19:01;;;;;;;5.28;3.00;;;20.60;83.70;;;;;;5039692;28;20036;-75
2021/08/15 08:21:27;;;;;;;10.48;3.72;;;20.60;83.70;;;;;;5038204;28;20064;-76
2021/08/15 08:23:52;;;;;;;7.28;3.75;;;20.50;83.40;;;;;;5048636;28;20036;-76
2021/08/15 08:26:18;;;;;;;8.30;4.15;;;20.40;83.40;;;;;;5052933;28;20472;-75
2021/08/15 08:28:44;;;;;;;8.15;4.20;;;20.40;83.40;;;;;;5033994;28;20095;-76
2021/08/15 08:31:09;;;;;;;7.85;4.00;;;20.40;84.00;;;;;;5032518;28;20100;-76
2021/08/15 08:33:35;;;;;;;9.77;4.43;;;20.40;83.30;;;;;;5033187;28;20021;-76
2021/08/15 08:36:01;;;;;;;9.27;4.28;;;20.50;83.20;;;;;;5032590;28;20033;-75
2021/08/15 08:38:26;;;;;;;9.15;4.07;;;20.50;83.00;;;;;;5033100;28;20041;-76
2021/08/15 08:40:53;;;;;;;10.05;4.65;;;20.50;82.90;;;;;;5053035;28;20089;-76
2021/08/15 08:43:20;;;;;;;9.13;4.32;;;20.60;82.80;;;;;;5046225;28;20029;-76
2021/08/15 08:45:47;;;;;;;10.88;4.70;;;20.70;82.60;;;;;;5038313;28;20515;-76
2021/08/15 08:48:14;;;;;;;9.40;4.28;;;20.80;82.40;;;;;;5033357;28;20477;-76
2021/08/15 08:50:41;;;;;;;8.40;3.80;;;20.90;82.10;;;;;;5052741;28;20032;-76
2021/08/15 08:53:07;;;;;;;6.05;2.95;;;20.90;81.80;;;;;;5050100;28;20032;-75
2021/08/15 08:55:34;;;;;;;7.63;3.17;;;21.00;81.60;;;;;;5044536;28;20055;-76
2021/08/15 08:58:00;;;;;;;4.53;2.40;;;21.10;81.20;;;;;;5032746;28;20196;-76
2021/08/15 09:00:26;;;;;;;8.02;3.22;;;21.00;80.90;;;;;;5032514;28;20112;-76
2021/08/15 09:02:58;;;;;;;6.68;3.15;;;21.10;80.50;;;;;;5032680;28;20025;-76
2021/08/15 09:05:31;;;;;;;7.57;2.80;;;21.20;80.30;;;;;;5045693;28;20028;-76
2021/08/15 09:07:57;;;;;;;5.85;2.58;;;21.20;80.00;;;;;;5072722;28;20089;-76
2021/08/15 09:10:31;;;;;;;6.22;2.28;;;21.20;79.90;;;;;;5072020;28;20028;-76
2021/08/15 09:13:02;;;;;;;8.50;3.30;;;21.20;79.80;;;;;;5063033;28;20057;-76
2021/08/15 09:15:30;;;;;;;6.75;2.75;;;21.10;79.70;;;;;;5052356;28;20363;-75
2021/08/15 09:17:55;;;;;;;5.90;2.70;;;21.10;80.40;;;;;;5052680;28;20021;-76
2021/08/15 09:20:44;;;;;;;7.57;3.25;;;21.10;79.70;;;;;;5051854;28;20527;-76
2021/08/15 09:23:26;;;;;;;6.97;2.70;;;21.10;79.40;;;;;;5050438;28;20017;-75
2021/08/15 09:26:12;;;;;;;7.43;2.70;;;21.10;79.40;;;;;;5050995;28;20033;-76
2021/08/15 09:28:38;;;;;;;7.10;3.33;;;21.20;79.20;;;;;;5013044;28;1140360;-76
2021/08/15 09:31:23;;;;;;;8.10;2.55;;;21.20;78.70;;;;;;5052500;28;20528;-75
2021/08/15 09:33:51;;;;;;;6.78;2.85;;;21.30;78.60;;;;;;5055284;28;20025;-76
2021/08/15 09:36:26;;;;;;;8.10;2.90;;;21.30;78.50;;;;;;5045319;28;20032;-76
2021/08/15 09:38:55;;;;;;;8.95;2.53;;;21.30;78.60;;;;;;5064651;28;20414;-76
2021/08/15 09:41:27;;;;;;;7.85;3.00;;;21.40;78.70;;;;;;5069477;28;20060;-75
2021/08/15 09:44:16;;;;;;;8.70;3.70;;;21.40;78.40;;;;;;5053620;28;20479;-76
2021/08/15 09:46:55;;;;;;;6.03;2.35;;;21.50;78.30;;;;;;5052527;28;20075;-75
2021/08/15 09:49:21;;;;;;;5.57;2.03;;;21.60;78.10;;;;;;5044190;28;20021;-76
2021/08/15 09:51:46;;;;;;;5.57;2.58;;;21.70;77.80;;;;;;5033157;28;20342;-76
2021/08/15 09:54:17;;;;;;;6.72;2.45;;;21.80;77.50;;;;;;5033310;28;20026;-75
2021/08/15 09:56:43;;;;;;;5.38;2.22;;;21.90;77.20;;;;;;5035148;28;20338;-76
2021/08/15 09:59:16;;;;;;;6.53;2.40;;;22.00;77.10;;;;;;5032378;28;20445;-75
2021/08/15 10:01:44;;;;;;;5.15;2.35;;;22.10;76.80;;;;;;5032636;28;20131;-76
2021/08/15 10:04:10;;;;;;;5.22;2.08;;;22.10;76.20;;;;;;5031874;28;20072;-76
2021/08/15 10:06:38;;;;;;;5.28;2.10;;;22.20;76.20;;;;;;5032463;28;20029;-76
2021/08/15 10:09:05;;;;;;;3.40;1.85;;;22.30;76.00;;;;;;5032407;28;20026;-76
2021/08/15 10:11:32;;;;;;;7.22;2.45;;;22.30;75.70;;;;;;5031741;28;20049;-76
2021/08/15 10:13:59;;;;;;;5.57;2.60;;;22.30;75.50;;;;;;5030528;28;20036;-76
2021/08/15 10:16:40;;;;;;;6.95;2.10;;;22.30;75.50;;;;;;5031313;28;20029;-76
2021/08/15 10:19:17;;;;;;;5.47;1.90;;;22.30;75.40;;;;;;5055019;28;20032;-76
2021/08/15 10:21:48;;;;;;;4.53;1.95;;;22.30;75.30;;;;;;5039946;28;20111;-76
2021/08/15 10:24:15;;;;;;;6.47;2.30;;;22.30;75.50;;;;;;5031934;28;20070;-76
2021/08/15 10:26:52;;;;;;;5.82;1.73;;;22.40;74.60;;;;;;5032641;28;20017;-75
2021/08/15 10:29:43;;;;;;;6.22;1.95;;;22.30;74.20;;;;;;5031436;28;20041;-76
2021/08/15 10:32:22;;;;;;;5.15;2.20;;;22.30;73.50;;;;;;5032055;28;20029;-75
2021/08/15 10:34:50;;;;;;;4.28;1.63;;;22.40;72.60;;;;;;5032461;28;20021;-76
2021/08/15 10:37:25;;;;;;;2.88;1.20;;;22.50;72.20;;;;;;5030471;28;20025;-75
2021/08/15 10:39:53;;;;;;;4.03;1.70;;;22.60;71.90;;;;;;5035342;28;20021;-75
2021/08/15 10:42:37;;;;;;;3.90;1.55;;;22.70;71.30;;;;;;5033015;28;20025;-75
2021/08/15 10:45:08;;;;;;;5.07;1.85;;;22.80;70.00;;;;;;5033184;28;20044;-74
2021/08/15 10:47:36;;;;;;;3.08;1.40;;;22.90;69.00;;;;;;5032157;28;20021;-74
2021/08/15 10:50:03;;;;;;;3.88;1.40;;;22.90;68.60;;;;;;5026925;28;20060;-73
2021/08/15 10:52:34;;;;;;;5.78;1.90;;;22.90;67.70;;;;;;5042256;28;20032;-74
2021/08/15 10:55:00;;;;;;;4.40;1.45;;;23.00;67.70;;;;;;5040650;28;20033;-75
2021/08/15 10:57:53;;;;;;;3.13;1.58;;;23.00;67.70;;;;;;5041787;28;20490;-74
2021/08/15 11:00:34;;;;;;;4.07;1.67;;;23.00;67.50;;;;;;5039182;28;20040;-73
2021/08/15 11:03:23;;;;;;;4.72;1.55;;;23.10;67.50;;;;;;5039208;28;20026;-76
2021/08/15 11:05:49;;;;;;;3.92;1.55;;;23.20;67.40;;;;;;5031714;28;20052;-74
2021/08/15 11:08:33;;;;;;;5.57;1.77;;;23.20;67.00;;;;;;5043571;28;20036;-74
2021/08/15 11:11:16;;;;;;;4.13;2.00;;;23.20;66.90;;;;;;5039185;28;20028;-73
2021/08/15 11:13:42;;;;;;;4.22;1.60;;;23.20;67.10;;;;;;5044005;28;20215;-74
2021/08/15 11:16:25;;;;;;;3.80;1.85;;;23.30;67.20;;;;;;5044287;28;20033;-74
2021/08/15 11:19:23;;;;;;;3.75;1.60;;;23.60;67.00;;;;;;5044089;28;20029;-73
2021/08/15 11:22:14;;;;;;;2.97;1.30;;;23.90;66.40;;;;;;5012855;28;20049;-74
2021/08/15 11:24:45;;;;;;;2.58;1.48;;;24.20;65.80;;;;;;5041974;28;20111;-73
2021/08/15 11:27:32;;;;;;;3.65;1.20;;;24.30;65.10;;;;;;5043090;28;20068;-74
2021/08/15 11:30:12;;;;;;;3.20;1.10;;;24.30;64.50;;;;;;5041686;28;20045;-74
2021/08/15 11:32:38;;;;;;;3.30;1.20;;;24.40;64.30;;;;;;5042685;28;20504;-73
2021/08/15 11:35:04;;;;;;;2.63;0.98;;;24.40;63.80;;;;;;5043469;28;20027;-74
2021/08/15 11:37:34;;;;;;;1.80;1.10;;;24.40;63.80;;;;;;5043750;28;20034;-73
2021/08/15 11:40:24;;;;;;;1.85;1.02;;;24.40;63.70;;;;;;5041337;28;20032;-74
2021/08/15 11:43:13;;;;;;;1.63;0.90;;;24.40;63.30;;;;;;5044750;28;20033;-73
2021/08/15 11:45:42;;;;;;;2.95;1.20;;;24.50;63.40;;;;;;5043011;28;20075;-72
2021/08/15 11:48:19;;;;;;;4.13;1.00;;;24.60;62.60;;;;;;5042560;28;20040;-75
2021/08/15 11:50:50;;;;;;;3.13;1.42;;;24.70;62.60;;;;;;5030467;28;20056;-74
2021/08/15 11:53:23;;;;;;;2.05;0.90;;;24.80;62.90;;;;;;5043638;28;20154;-73
2021/08/15 11:55:51;;;;;;;3.58;1.30;;;24.80;63.10;;;;;;5043681;28;20044;-74
2021/08/15 11:58:18;;;;;;;2.40;1.27;;;24.80;63.40;;;;;;5043310;28;20308;-74
2021/08/15 12:00:43;;;;;;;3.33;1.13;;;24.90;63.60;;;;;;5042267;28;20025;-74
2021/08/15 12:03:21;;;;;;;3.75;1.48;;;25.10;63.80;;;;;;5043379;28;20131;-74
2021/08/15 12:05:49;;;;;;;1.95;1.10;;;25.20;63.80;;;;;;5043959;28;20049;-74
2021/08/15 12:08:20;;;;;;;3.15;1.20;;;25.30;63.50;;;;;;5043550;28;20033;-74
2021/08/15 12:10:51;;;;;;;2.67;1.17;;;25.40;63.70;;;;;;5045186;28;20214;-74
2021/08/15 12:13:36;;;;;;;2.50;1.30;;;25.40;63.10;;;;;;5046978;28;20062;-75
2021/08/15 12:16:02;;;;;;;2.33;1.13;;;25.50;62.90;;;;;;5045661;28;20384;-75
2021/08/15 12:18:31;;;;;;;2.35;1.08;;;25.60;62.80;;;;;;5046961;28;20100;-75
2021/08/15 12:20:59;;;;;;;1.95;0.75;;;25.60;62.70;;;;;;5047871;28;20036;-75
2021/08/15 12:23:24;;;;;;;1.52;0.70;;;25.50;62.90;;;;;;5046817;28;20477;-75
2021/08/15 12:26:09;;;;;;;2.50;1.30;;;25.50;62.90;;;;;;5045410;28;20033;-75
2021/08/15 12:28:38;;;;;;;2.35;0.95;;;25.40;63.30;;;;;;5045466;28;20092;-75
2021/08/15 12:31:19;;;;;;;1.45;0.85;;;25.40;63.60;;;;;;5045643;28;20060;-75
2021/08/15 12:33:45;;;;;;;3.70;0.95;;;25.30;63.80;;;;;;5046487;28;20116;-74
2021/08/15 12:36:23;;;;;;;3.05;1.13;;;25.30;64.00;;;;;;5046651;28;20540;-74
2021/08/15 12:39:02;;;;;;;1.98;0.90;;;25.30;63.80;;;;;;5047624;28;20108;-74
2021/08/15 12:41:49;;;;;;;2.63;1.23;;;25.30;63.70;;;;;;5044680;28;20028;-74
2021/08/15 12:44:18;;;;;;;1.27;0.80;;;25.40;63.60;;;;;;5044299;28;20108;-74
2021/08/15 12:46:44;;;;;;;3.22;1.23;;;25.40;63.60;;;;;;5045902;28;20480;-74
2021/08/15 12:49:22;;;;;;;2.15;1.02;;;25.40;63.40;;;;;;5030809;28;20045;-74
2021/08/15 12:51:48;;;;;;;1.92;1.00;;;25.40;63.60;;;;;;5024949;28;20033;-74